Akiachak, Alaska
Current Conditions -  °F | °C
As of 12:56 AM on Tuesday 27 Jan 2015 (Local Time) from PFKW Reporting Station
Overcast Overcast  
Wind Chill: -21°   Ceiling: 7500
Heat Index: -2°   Visibility: 10mi
Dew Point: -7°   Wind: 14mph
Humidity: 79%   Direction: 40°NE
Pressure: 29.76"   Gusts: NA
Location:  60.91°N, 161.44°W
Report Text: PFKW 270956Z AUTO 04012KT 10SM BKN075 OVC090 M19/M22 A2976 RMK AO2 SLP079 T11891217 FZRANO
Loading
Personal Weather Stations






























Interactive Weather Map New forecast layout! Learn more

10-Day Weather Forecast

Advertisements
Track Severe Weather on mobile